Time;durP1;ratioP1;P1;durP2;ratioP2;P2;SDS_P1;SDS_P2;PMS_P1;PMS_P2;Temp;Humidity;BMP_temperature;BMP_pressure;BME280_temperature;BME280_humidity;BME280_pressure;Samples;Min_cycle;Max_cycle;Signal;HPM_P1;HPM_P2
2023/08/04 00:00:40;;;;;;;;;;;22.20;88.80;;;;;;5075942;28;19940;-62
2023/08/04 00:03:05;;;;;;;;;;;22.20;88.80;;;;;;5075625;28;19904;-62
2023/08/04 00:05:31;;;;;;;;;;;22.20;88.70;;;;;;5075815;28;19904;-62
2023/08/04 00:07:56;;;;;;;;;;;22.20;88.80;;;;;;5075536;28;19915;-62
2023/08/04 00:10:22;;;;;;;;;;;22.20;88.80;;;;;;5075677;28;20011;-62
2023/08/04 00:12:47;;;;;;;;;;;22.20;88.80;;;;;;5075717;28;19912;-62
2023/08/04 00:15:12;;;;;;;;;;;22.20;88.80;;;;;;5075638;28;19951;-62
2023/08/04 00:17:39;;;;;;;;;;;22.20;88.80;;;;;;5075588;28;19904;-62
2023/08/04 00:20:08;;;;;;;;;;;22.20;88.70;;;;;;5075536;28;20347;-62
2023/08/04 00:22:34;;;;;;;;;;;22.20;88.70;;;;;;5075423;28;19905;-62
2023/08/04 00:24:59;;;;;;;;;;;22.20;88.70;;;;;;5075437;28;19904;-61
2023/08/04 00:27:25;;;;;;;;;;;22.20;88.70;;;;;;5075423;28;19905;-61
2023/08/04 00:29:50;;;;;;;;;;;22.20;88.70;;;;;;5075392;28;20374;-62
2023/08/04 00:32:16;;;;;;;;;;;22.20;88.70;;;;;;5075174;28;19912;-62
2023/08/04 00:34:41;;;;;;;;;;;22.20;88.70;;;;;;5075278;28;19944;-61
2023/08/04 00:37:07;;;;;;;;;;;22.20;88.70;;;;;;5075137;28;20282;-61
2023/08/04 00:39:32;;;;;;;;;;;22.20;88.70;;;;;;5074896;28;19940;-61
2023/08/04 00:41:58;;;;;;;;;;;22.20;88.70;;;;;;5075126;28;19911;-60
2023/08/04 00:44:23;;;;;;;;;;;22.20;88.70;;;;;;5074678;28;19916;-61
2023/08/04 00:46:49;;;;;;;;;;;22.20;88.70;;;;;;5074792;28;19912;-61
2023/08/04 00:49:14;;;;;;;;;;;22.20;88.70;;;;;;5074674;28;20359;-61
2023/08/04 00:51:40;;;;;;;;;;;22.20;88.70;;;;;;5074873;28;19966;-62
2023/08/04 00:54:06;;;;;;;;;;;22.20;88.70;;;;;;5075053;28;19909;-62
2023/08/04 00:56:32;;;;;;;;;;;22.20;88.70;;;;;;5074796;28;19997;-61
2023/08/04 00:58:57;;;;;;;;;;;22.20;88.70;;;;;;5074524;28;19999;-62
2023/08/04 01:01:23;;;;;;;;;;;22.30;88.70;;;;;;5074435;28;19908;-62
2023/08/04 01:03:48;;;;;;;;;;;22.20;88.70;;;;;;5074294;28;19904;-63
2023/08/04 01:06:22;;;;;;;;;;;22.30;88.70;;;;;;5074695;28;19973;-62
2023/08/04 01:09:00;;;;;;;;;;;22.30;88.70;;;;;;5074576;28;19904;-63
2023/08/04 01:11:28;;;;;;;;;;;22.20;88.60;;;;;;5074709;28;20003;-62
2023/08/04 01:13:54;;;;;;;;;;;22.20;88.70;;;;;;5074299;28;20317;-62
2023/08/04 01:16:19;;;;;;;;;;;22.20;88.70;;;;;;5074909;28;19904;-62
2023/08/04 01:18:45;;;;;;;;;;;22.20;88.70;;;;;;5074436;28;19904;-62
2023/08/04 01:21:10;;;;;;;;;;;22.20;88.70;;;;;;5074395;28;19904;-62
2023/08/04 01:23:36;;;;;;;;;;;22.20;88.70;;;;;;5074358;28;19911;-62
2023/08/04 01:26:03;;;;;;;;;;;22.20;88.80;;;;;;5074074;28;19948;-62
2023/08/04 01:28:29;;;;;;;;;;;22.20;88.80;;;;;;5074096;28;20329;-60
2023/08/04 01:30:55;;;;;;;;;;;22.20;88.80;;;;;;5074262;28;19915;-62
2023/08/04 01:33:21;;;;;;;;;;;22.20;88.80;;;;;;5074298;28;19908;-62
2023/08/04 01:35:47;;;;;;;;;;;22.20;88.90;;;;;;5074213;28;19904;-62
2023/08/04 01:38:12;;;;;;;;;;;22.20;88.90;;;;;;5074242;28;19911;-62
2023/08/04 01:40:38;;;;;;;;;;;22.20;88.90;;;;;;5074229;28;19928;-62
2023/08/04 01:43:04;;;;;;;;;;;22.20;88.90;;;;;;5074247;28;19991;-62
2023/08/04 01:45:29;;;;;;;;;;;22.20;89.00;;;;;;5074227;28;19916;-61
2023/08/04 01:47:55;;;;;;;;;;;22.20;89.00;;;;;;5074258;28;20316;-62
2023/08/04 01:50:20;;;;;;;;;;;22.20;89.00;;;;;;5074110;28;19908;-62
2023/08/04 01:52:45;;;;;;;;;;;22.30;89.10;;;;;;5073885;28;19915;-62
2023/08/04 01:55:11;;;;;;;;;;;22.20;89.00;;;;;;5074143;28;19908;-62
2023/08/04 01:57:36;;;;;;;;;;;22.20;89.00;;;;;;5074151;28;19912;-62
2023/08/04 02:00:02;;;;;;;;;;;22.30;89.00;;;;;;5074023;28;19905;-62
2023/08/04 02:02:28;;;;;;;;;;;22.20;89.00;;;;;;5071966;28;19912;-62
2023/08/04 02:04:53;;;;;;;;;;;22.20;89.00;;;;;;5073979;28;19912;-62
2023/08/04 02:07:19;;;;;;;;;;;22.20;89.00;;;;;;5073717;28;19904;-62
2023/08/04 02:09:45;;;;;;;;;;;22.20;89.10;;;;;;5073972;28;19908;-62
2023/08/04 02:12:11;;;;;;;;;;;22.20;89.10;;;;;;5073963;28;19912;-62
2023/08/04 02:14:36;;;;;;;;;;;22.30;89.10;;;;;;5076738;28;19908;-62
2023/08/04 02:17:02;;;;;;;;;;;22.20;89.10;;;;;;5077667;28;20289;-62
2023/08/04 02:19:27;;;;;;;;;;;22.20;89.00;;;;;;5078630;28;19995;-62
2023/08/04 02:21:52;;;;;;;;;;;22.20;89.10;;;;;;5098151;28;20013;-62
2023/08/04 02:24:18;;;;;;;;;;;22.20;89.00;;;;;;5097859;28;20361;-62
2023/08/04 02:26:44;;;;;;;;;;;22.20;89.00;;;;;;5098408;28;19911;-62
2023/08/04 02:29:10;;;;;;;;;;;22.20;89.00;;;;;;5098030;28;19904;-62
2023/08/04 02:31:36;;;;;;;;;;;22.20;89.10;;;;;;5097831;28;19915;-62
2023/08/04 02:34:01;;;;;;;;;;;22.20;89.00;;;;;;5098258;28;19908;-61
2023/08/04 02:36:27;;;;;;;;;;;22.20;89.00;;;;;;5096988;28;19957;-62
2023/08/04 02:38:52;;;;;;;;;;;22.20;89.00;;;;;;5097854;28;19904;-62
2023/08/04 02:41:18;;;;;;;;;;;22.20;89.00;;;;;;5097839;28;19908;-62
2023/08/04 02:43:43;;;;;;;;;;;22.20;89.00;;;;;;5097465;28;19905;-62
2023/08/04 02:46:12;;;;;;;;;;;22.20;89.00;;;;;;5097749;28;19981;-62
2023/08/04 02:48:38;;;;;;;;;;;22.20;89.00;;;;;;5097366;28;20350;-62
2023/08/04 02:51:07;;;;;;;;;;;22.20;89.00;;;;;;5097706;28;19908;-61
2023/08/04 02:53:34;;;;;;;;;;;22.20;89.00;;;;;;5096745;28;19920;-62
2023/08/04 02:55:59;;;;;;;;;;;22.20;89.00;;;;;;5091700;28;19927;-62
2023/08/04 02:58:26;;;;;;;;;;;22.20;89.50;;;;;;5077559;28;19904;-62
2023/08/04 03:00:51;;;;;;;;;;;22.20;89.10;;;;;;5077151;28;19905;-62
2023/08/04 03:03:17;;;;;;;;;;;22.30;89.10;;;;;;5077114;28;19909;-62
2023/08/04 03:05:43;;;;;;;;;;;22.20;89.10;;;;;;5077103;28;19912;-62
2023/08/04 03:08:08;;;;;;;;;;;22.20;89.10;;;;;;5109721;28;19909;-62
2023/08/04 03:10:33;;;;;;;;;;;22.20;89.10;;;;;;5077159;28;19943;-62
2023/08/04 03:12:59;;;;;;;;;;;22.20;89.10;;;;;;5076560;28;19908;-62
2023/08/04 03:15:24;;;;;;;;;;;22.20;89.00;;;;;;5076755;28;20339;-62
2023/08/04 03:17:50;;;;;;;;;;;22.20;89.10;;;;;;5076832;28;19958;-62
2023/08/04 03:20:16;;;;;;;;;;;22.20;89.10;;;;;;5076512;28;19909;-62
2023/08/04 03:22:41;;;;;;;;;;;22.20;89.00;;;;;;5076459;28;20356;-62
2023/08/04 03:25:09;;;;;;;;;;;22.20;89.00;;;;;;5075992;28;19908;-62
2023/08/04 03:27:35;;;;;;;;;;;22.20;89.00;;;;;;5076854;28;20381;-62
2023/08/04 03:30:01;;;;;;;;;;;22.20;89.00;;;;;;5076538;28;19987;-62
2023/08/04 03:32:26;;;;;;;;;;;22.20;89.00;;;;;;5076567;28;19995;-62
2023/08/04 03:34:51;;;;;;;;;;;22.20;89.00;;;;;;5076506;28;19904;-62
2023/08/04 03:37:17;;;;;;;;;;;22.20;89.00;;;;;;5076441;28;19909;-62
2023/08/04 03:39:42;;;;;;;;;;;22.20;89.00;;;;;;5076417;28;19905;-62
2023/08/04 03:42:08;;;;;;;;;;;22.20;89.10;;;;;;5076367;28;19995;-62
2023/08/04 03:44:34;;;;;;;;;;;22.20;89.10;;;;;;5076782;28;19925;-62
2023/08/04 03:47:00;;;;;;;;;;;22.20;89.10;;;;;;5076008;28;19931;-62
2023/08/04 03:49:25;;;;;;;;;;;22.20;89.10;;;;;;5074079;28;19909;-62
2023/08/04 03:51:51;;;;;;;;;;;22.20;89.10;;;;;;5082834;28;19919;-62
2023/08/04 03:54:16;;;;;;;;;;;22.20;89.10;;;;;;5074881;28;20365;-62
2023/08/04 03:56:42;;;;;;;;;;;22.20;89.10;;;;;;5075980;28;19912;-62
2023/08/04 03:59:11;;;;;;;;;;;22.20;89.10;;;;;;5075706;28;20002;-61
2023/08/04 04:01:36;;;;;;;;;;;22.20;89.10;;;;;;5076485;28;19905;-62
2023/08/04 04:04:02;;;;;;;;;;;22.20;89.10;;;;;;5075891;28;19911;-60
2023/08/04 04:06:27;;;;;;;;;;;22.20;89.10;;;;;;5078463;28;19919;-62
2023/08/04 04:08:54;;;;;;;;;;;22.20;89.20;;;;;;5087509;28;20302;-62
2023/08/04 04:11:19;;;;;;;;;;;22.20;89.10;;;;;;5092926;28;19918;-61
2023/08/04 04:13:45;;;;;;;;;;;22.20;89.10;;;;;;5075304;28;19908;-62
2023/08/04 04:16:10;;;;;;;;;;;22.20;89.10;;;;;;5075707;28;19996;-62
2023/08/04 04:18:36;;;;;;;;;;;22.20;89.10;;;;;;5075474;28;19912;-62
2023/08/04 04:21:01;;;;;;;;;;;22.20;89.10;;;;;;5075482;28;19904;-62
2023/08/04 04:23:27;;;;;;;;;;;22.20;89.10;;;;;;5075333;28;20083;-62
2023/08/04 04:25:53;;;;;;;;;;;22.20;89.20;;;;;;5075339;28;20344;-62
2023/08/04 04:28:19;;;;;;;;;;;22.20;89.10;;;;;;5075536;28;19946;-62
2023/08/04 04:30:45;;;;;;;;;;;22.20;89.20;;;;;;5075149;28;20339;-62
2023/08/04 04:33:10;;;;;;;;;;;22.20;89.10;;;;;;5075164;28;19909;-61
2023/08/04 04:35:35;;;;;;;;;;;22.20;89.10;;;;;;5077345;28;19905;-61
2023/08/04 04:38:01;;;;;;;;;;;22.20;89.10;;;;;;5094460;28;19904;-62
2023/08/04 04:40:26;;;;;;;;;;;22.20;89.10;;;;;;5095052;28;19958;-62
2023/08/04 04:42:52;;;;;;;;;;;22.20;89.10;;;;;;5095072;28;20415;-62
2023/08/04 04:45:17;;;;;;;;;;;22.20;89.10;;;;;;5095070;28;19920;-62
2023/08/04 04:47:43;;;;;;;;;;;22.20;89.10;;;;;;5095607;28;19904;-62
2023/08/04 04:50:08;;;;;;;;;;;22.20;89.10;;;;;;5094797;28;19943;-62
2023/08/04 04:52:38;;;;;;;;;;;22.20;89.10;;;;;;5093812;28;19908;-61
2023/08/04 04:55:04;;;;;;;;;;;22.20;89.10;;;;;;5095306;28;19911;-60
2023/08/04 04:57:30;;;;;;;;;;;22.20;89.10;;;;;;5094598;28;20327;-62
2023/08/04 04:59:56;;;;;;;;;;;22.20;89.10;;;;;;5094759;28;19995;-62
2023/08/04 05:02:21;;;;;;;;;;;22.20;89.10;;;;;;5094890;28;19904;-62
2023/08/04 05:04:47;;;;;;;;;;;22.20;89.10;;;;;;5094969;28;19904;-62
2023/08/04 05:07:12;;;;;;;;;;;22.20;89.10;;;;;;5084486;28;19904;-62
2023/08/04 05:09:38;;;;;;;;;;;22.20;89.10;;;;;;5074782;28;19904;-62
2023/08/04 05:12:04;;;;;;;;;;;22.20;89.10;;;;;;5074295;28;19958;-61
2023/08/04 05:14:30;;;;;;;;;;;22.20;89.10;;;;;;5074156;28;19963;-62
2023/08/04 05:16:55;;;;;;;;;;;22.20;89.10;;;;;;5106726;28;19905;-62
2023/08/04 05:19:21;;;;;;;;;;;22.20;89.10;;;;;;5074462;28;19912;-62
2023/08/04 05:21:46;;;;;;;;;;;22.20;89.20;;;;;;5074631;28;20343;-62
2023/08/04 05:24:12;;;;;;;;;;;22.20;89.10;;;;;;5074153;28;19911;-62
2023/08/04 05:26:37;;;;;;;;;;;22.20;89.10;;;;;;5074786;28;19908;-62
2023/08/04 05:29:03;;;;;;;;;;;22.20;89.10;;;;;;5106580;28;19908;-62
2023/08/04 05:31:28;;;;;;;;;;;22.20;89.10;;;;;;5078285;28;19966;-62
2023/08/04 05:33:56;;;;;;;;;;;22.20;89.10;;;;;;5078776;28;19919;-62
2023/08/04 05:36:22;;;;;;;;;;;22.10;89.00;;;;;;5073435;28;20389;-62
2023/08/04 05:38:48;;;;;;;;;;;22.20;89.10;;;;;;5084095;28;20362;-62
2023/08/04 05:41:13;;;;;;;;;;;22.10;89.10;;;;;;5094058;28;20007;-62
2023/08/04 05:43:39;;;;;;;;;;;22.10;89.10;;;;;;5075601;28;19928;-62
2023/08/04 05:46:04;;;;;;;;;;;22.10;89.10;;;;;;5073621;28;19999;-61
2023/08/04 05:48:30;;;;;;;;;;;22.10;89.10;;;;;;5073855;28;19905;-62
2023/08/04 05:50:56;;;;;;;;;;;22.10;89.20;;;;;;5073947;28;19908;-62
2023/08/04 05:53:21;;;;;;;;;;;22.10;89.20;;;;;;5073726;28;19915;-62
2023/08/04 05:55:47;;;;;;;;;;;22.10;89.20;;;;;;5073821;28;20350;-62
2023/08/04 05:58:12;;;;;;;;;;;22.10;89.10;;;;;;5073677;28;19908;-62
2023/08/04 06:00:38;;;;;;;;;;;22.10;89.20;;;;;;5074982;28;19942;-61
2023/08/04 06:03:04;;;;;;;;;;;22.10;89.10;;;;;;5073323;28;19904;-62
2023/08/04 06:05:30;;;;;;;;;;;22.10;89.20;;;;;;5089769;28;20232;-62
2023/08/04 06:07:55;;;;;;;;;;;22.10;89.20;;;;;;5073821;28;20401;-62
2023/08/04 06:10:21;;;;;;;;;;;22.10;89.20;;;;;;5073249;28;19905;-62
2023/08/04 06:12:47;;;;;;;;;;;22.10;89.30;;;;;;5073678;28;19912;-62
2023/08/04 06:15:13;;;;;;;;;;;22.10;89.30;;;;;;5073561;28;19944;-62
2023/08/04 06:17:39;;;;;;;;;;;22.10;89.30;;;;;;5076372;28;19904;-61
2023/08/04 06:20:04;;;;;;;;;;;22.10;89.40;;;;;;5080785;28;19970;-62
2023/08/04 06:22:30;;;;;;;;;;;22.10;89.40;;;;;;5073559;28;19904;-62
2023/08/04 06:24:56;;;;;;;;;;;22.10;90.00;;;;;;5073865;28;19912;-62
2023/08/04 06:27:21;;;;;;;;;;;22.10;89.40;;;;;;5073293;28;19904;-62
2023/08/04 06:29:47;;;;;;;;;;;22.10;89.50;;;;;;5073498;28;19943;-62
2023/08/04 06:32:12;;;;;;;;;;;22.10;89.50;;;;;;5073437;28;20365;-61
2023/08/04 06:34:38;;;;;;;;;;;22.10;89.50;;;;;;5074093;28;19938;-62
2023/08/04 06:37:03;;;;;;;;;;;22.10;89.60;;;;;;5073477;28;19904;-62
2023/08/04 06:39:29;;;;;;;;;;;22.10;89.60;;;;;;5073011;28;19904;-62
2023/08/04 06:41:54;;;;;;;;;;;22.00;89.60;;;;;;5073459;28;20282;-62
2023/08/04 06:44:20;;;;;;;;;;;22.00;89.60;;;;;;5073302;28;19923;-62
2023/08/04 06:46:45;;;;;;;;;;;22.00;89.70;;;;;;5073717;28;19912;-62
2023/08/04 06:49:11;;;;;;;;;;;22.00;89.70;;;;;;5073204;28;19954;-61
2023/08/04 06:51:36;;;;;;;;;;;22.00;89.80;;;;;;5082678;28;19994;-61
2023/08/04 06:54:02;;;;;;;;;;;22.00;89.90;;;;;;5081995;28;19920;-62
2023/08/04 06:56:27;;;;;;;;;;;22.00;89.90;;;;;;5114813;28;20273;-62
2023/08/04 06:58:53;;;;;;;;;;;22.00;89.90;;;;;;5093495;28;19908;-62
2023/08/04 07:01:18;;;;;;;;;;;22.00;89.90;;;;;;5076422;28;20368;-62
2023/08/04 07:03:44;;;;;;;;;;;22.00;90.00;;;;;;5090402;28;19908;-62
2023/08/04 07:06:10;;;;;;;;;;;22.00;90.00;;;;;;5095731;28;19911;-63
2023/08/04 07:08:35;;;;;;;;;;;22.00;90.00;;;;;;5093935;28;19904;-62
2023/08/04 07:11:01;;;;;;;;;;;22.00;90.10;;;;;;5084694;28;19959;-62
2023/08/04 07:13:29;;;;;;;;;;;22.00;90.10;;;;;;5076305;28;19919;-62
2023/08/04 07:15:55;;;;;;;;;;;22.00;90.10;;;;;;5076963;28;19908;-61
2023/08/04 07:18:21;;;;;;;;;;;22.00;90.20;;;;;;5096387;28;19904;-60
2023/08/04 07:20:46;;;;;;;;;;;22.00;90.30;;;;;;5092288;28;19923;-61
2023/08/04 07:23:12;;;;;;;;;;;22.00;90.40;;;;;;5083760;28;20343;-62
2023/08/04 07:25:37;;;;;;;;;;;22.00;90.40;;;;;;5091635;28;19959;-62
2023/08/04 07:28:03;;;;;;;;;;;22.00;90.40;;;;;;5078598;28;19912;-67
2023/08/04 07:30:29;;;;;;;;;;;22.00;90.40;;;;;;5075338;28;19928;-58
2023/08/04 07:32:55;;;;;;;;;;;22.00;90.50;;;;;;5094991;28;20363;-63
2023/08/04 07:35:20;;;;;;;;;;;22.00;90.60;;;;;;5087951;28;19920;-66
2023/08/04 07:37:46;;;;;;;;;;;22.00;90.70;;;;;;5074994;28;19912;-63
2023/08/04 07:40:11;;;;;;;;;;;22.00;90.70;;;;;;5074901;28;20429;-64
2023/08/04 07:42:37;;;;;;;;;;;22.00;90.80;;;;;;5074817;28;19921;-63
2023/08/04 07:45:03;;;;;;;;;;;22.00;90.80;;;;;;5075878;28;19939;-60
2023/08/04 07:47:28;;;;;;;;;;;22.00;90.80;;;;;;5092343;28;19912;-64
2023/08/04 07:49:54;;;;;;;;;;;22.00;90.80;;;;;;5095970;28;19931;-62
2023/08/04 07:52:19;;;;;;;;;;;22.00;90.90;;;;;;5080044;28;19943;-63
2023/08/04 07:54:45;;;;;;;;;;;22.00;90.90;;;;;;5074726;28;19923;-63
2023/08/04 07:57:10;;;;;;;;;;;22.00;90.90;;;;;;5075519;28;19909;-64
2023/08/04 07:59:35;;;;;;;;;;;22.00;90.90;;;;;;5075543;28;20375;-66
2023/08/04 08:02:01;;;;;;;;;;;22.00;90.90;;;;;;5078394;28;19947;-71
2023/08/04 08:04:26;;;;;;;;;;;22.00;90.90;;;;;;5093706;28;19912;-62
2023/08/04 08:06:52;;;;;;;;;;;22.00;90.90;;;;;;5080334;28;19955;-63
2023/08/04 08:09:17;;;;;;;;;;;22.00;91.00;;;;;;5089917;28;19923;-62
2023/08/04 08:11:43;;;;;;;;;;;22.00;91.00;;;;;;5075647;28;19942;-62
2023/08/04 08:14:08;;;;;;;;;;;22.00;91.00;;;;;;5094333;28;20011;-60
2023/08/04 08:16:34;;;;;;;;;;;22.00;91.00;;;;;;5074386;28;19909;-64
2023/08/04 08:19:01;;;;;;;;;;;22.00;91.00;;;;;;5071502;28;19919;-66
2023/08/04 08:21:27;;;;;;;;;;;22.00;91.00;;;;;;5072131;28;19973;-65
2023/08/04 08:23:52;;;;;;;;;;;22.00;91.00;;;;;;5089383;28;20007;-63
2023/08/04 08:26:17;;;;;;;;;;;22.00;91.00;;;;;;5076142;28;20363;-62
2023/08/04 08:28:43;;;;;;;;;;;22.00;91.00;;;;;;5075255;28;19930;-61
2023/08/04 08:31:08;;;;;;;;;;;22.00;91.20;;;;;;5078157;28;19916;-61
2023/08/04 08:33:34;;;;;;;;;;;22.10;91.00;;;;;;5089585;28;19916;-65
2023/08/04 08:35:59;;;;;;;;;;;22.00;91.00;;;;;;5083873;28;19928;-64
2023/08/04 08:38:25;;;;;;;;;;;22.00;91.00;;;;;;5077208;28;20351;-65
2023/08/04 08:40:51;;;;;;;;;;;22.10;91.00;;;;;;5074525;28;19999;-65
2023/08/04 08:43:16;;;;;;;;;;;22.00;91.00;;;;;;5074871;28;19909;-64
2023/08/04 08:45:42;;;;;;;;;;;22.10;91.10;;;;;;5074724;28;19921;-64
2023/08/04 08:48:08;;;;;;;;;;;22.10;91.10;;;;;;5074533;28;19919;-64
2023/08/04 08:50:33;;;;;;;;;;;22.10;91.10;;;;;;5076992;28;19968;-65
2023/08/04 08:53:06;;;;;;;;;;;22.00;91.00;;;;;;5088595;28;19912;-64
2023/08/04 08:55:32;;;;;;;;;;;22.00;91.00;;;;;;5074609;28;19952;-64
2023/08/04 08:58:00;;;;;;;;;;;22.10;91.00;;;;;;5083625;28;19923;-64
2023/08/04 09:00:25;;;;;;;;;;;22.00;91.00;;;;;;5087281;28;19916;-64
2023/08/04 09:02:51;;;;;;;;;;;22.00;91.00;;;;;;5084695;28;20268;-64
2023/08/04 09:05:17;;;;;;;;;;;22.00;91.00;;;;;;5076385;28;19956;-64
2023/08/04 09:07:42;;;;;;;;;;;22.10;91.00;;;;;;5094722;28;19915;-64
2023/08/04 09:10:08;;;;;;;;;;;22.10;91.00;;;;;;5094683;28;19918;-64
2023/08/04 09:12:34;;;;;;;;;;;22.00;91.00;;;;;;5075383;28;19920;-65
2023/08/04 09:15:01;;;;;;;;;;;22.00;91.00;;;;;;5073204;28;20275;-64
2023/08/04 09:17:37;;;;;;;;;;;22.00;90.90;;;;;;5070762;28;19912;-64
2023/08/04 09:20:09;;;;;;;;;;;22.00;90.90;;;;;;5071755;28;19909;-64
2023/08/04 09:22:40;;;;;;;;;;;22.10;90.90;;;;;;5076400;28;20305;-64
2023/08/04 09:25:07;;;;;;;;;;;22.10;90.90;;;;;;5087090;28;19904;-62
2023/08/04 09:27:37;;;;;;;;;;;22.10;90.90;;;;;;5094282;28;19904;-62
2023/08/04 09:30:07;;;;;;;;;;;22.00;89.40;;;;;;5094193;28;19904;-62
2023/08/04 09:32:39;;;;;;;;;;;22.10;88.60;;;;;;5094376;28;20253;-62
2023/08/04 09:35:05;;;;;;;;;;;22.10;88.20;;;;;;5094443;28;19908;-62
2023/08/04 09:37:35;;;;;;;;;;;22.10;87.90;;;;;;5078572;28;20330;-65
2023/08/04 09:40:03;;;;;;;;;;;22.10;88.00;;;;;;5080370;28;19908;-60
2023/08/04 09:42:28;;;;;;;;;;;22.10;88.70;;;;;;5082919;28;20419;-62
2023/08/04 09:44:54;;;;;;;;;;;22.10;89.40;;;;;;5080017;28;19916;-61
2023/08/04 09:47:23;;;;;;;;;;;22.10;89.90;;;;;;5073935;28;19949;-62
2023/08/04 09:49:49;;;;;;;;;;;22.10;90.10;;;;;;5073926;28;19908;-62
2023/08/04 09:52:21;;;;;;;;;;;22.00;90.20;;;;;;5078369;28;20010;-60
2023/08/04 09:54:47;;;;;;;;;;;22.00;90.20;;;;;;5089997;28;19916;-61
2023/08/04 09:57:14;;;;;;;;;;;22.10;89.10;;;;;;5086053;28;19921;-62
2023/08/04 09:59:40;;;;;;;;;;;22.10;89.40;;;;;;5073997;28;19912;-63
2023/08/04 10:02:06;;;;;;;;;;;22.10;89.90;;;;;;5076726;28;20003;-63
2023/08/04 10:04:32;;;;;;;;;;;22.00;90.10;;;;;;5075760;28;20000;-63
2023/08/04 10:06:58;;;;;;;;;;;22.00;90.20;;;;;;5076924;28;19916;-63
2023/08/04 10:09:24;;;;;;;;;;;22.00;90.20;;;;;;5079636;28;19999;-63
2023/08/04 10:11:50;;;;;;;;;;;22.00;90.20;;;;;;5073134;28;19999;-63
2023/08/04 10:14:15;;;;;;;;;;;22.00;90.30;;;;;;5072404;28;19935;-62
2023/08/04 10:16:41;;;;;;;;;;;22.00;90.30;;;;;;5073096;28;20302;-61
2023/08/04 10:19:07;;;;;;;;;;;22.00;90.30;;;;;;5073327;28;19915;-62
2023/08/04 10:21:36;;;;;;;;;;;22.00;90.30;;;;;;5073242;28;19917;-62
2023/08/04 10:24:02;;;;;;;;;;;22.00;90.30;;;;;;5090218;28;20263;-62
2023/08/04 10:26:31;;;;;;;;;;;22.00;90.30;;;;;;5093542;28;20228;-62
2023/08/04 10:29:03;;;;;;;;;;;22.00;90.30;;;;;;5093378;28;19908;-62
2023/08/04 10:31:45;;;;;;;;;;;22.00;90.30;;;;;;5093701;28;19916;-63
2023/08/04 10:34:25;;;;;;;;;;;22.00;90.30;;;;;;5093458;28;19960;-62
2023/08/04 10:37:06;;;;;;;;;;;22.00;90.30;;;;;;5096972;28;19916;-63
2023/08/04 10:39:36;;;;;;;;;;;22.00;90.30;;;;;;5097418;28;20287;-64
2023/08/04 10:42:21;;;;;;;;;;;22.00;90.30;;;;;;5097640;28;19915;-64
2023/08/04 10:44:54;;;;;;;;;;;22.00;90.30;;;;;;5096972;28;19920;-63
2023/08/04 10:47:39;;;;;;;;;;;22.00;90.30;;;;;;5097268;28;19915;-63
2023/08/04 10:50:05;;;;;;;;;;;22.00;90.30;;;;;;5097372;28;20363;-64
2023/08/04 10:52:31;;;;;;;;;;;22.00;90.30;;;;;;5097261;28;19912;-63
2023/08/04 10:54:57;;;;;;;;;;;22.00;90.30;;;;;;5097208;28;19957;-63
2023/08/04 10:57:23;;;;;;;;;;;22.00;90.30;;;;;;5096816;28;19916;-63
2023/08/04 10:59:49;;;;;;;;;;;22.00;90.30;;;;;;5097451;28;19908;-63
2023/08/04 11:02:18;;;;;;;;;;;22.00;90.40;;;;;;5096871;28;19915;-62
2023/08/04 11:04:45;;;;;;;;;;;22.00;90.40;;;;;;5097049;28;20408;-63
2023/08/04 11:07:11;;;;;;;;;;;22.00;90.40;;;;;;5096854;28;19940;-63
2023/08/04 11:09:37;;;;;;;;;;;22.00;90.40;;;;;;5096993;28;20255;-64
2023/08/04 11:12:04;;;;;;;;;;;22.00;90.40;;;;;;5096713;28;19912;-64
2023/08/04 11:14:30;;;;;;;;;;;22.00;90.40;;;;;;5097201;28;19912;-64
2023/08/04 11:17:00;;;;;;;;;;;22.00;90.40;;;;;;5096743;28;19962;-63
2023/08/04 11:19:26;;;;;;;;;;;22.00;90.40;;;;;;5096799;28;20313;-65
2023/08/04 11:21:51;;;;;;;;;;;22.00;90.40;;;;;;5096523;28;19908;-64
2023/08/04 11:24:21;;;;;;;;;;;22.00;90.30;;;;;;5077534;28;19908;-62
2023/08/04 11:26:47;;;;;;;;;;;22.00;90.30;;;;;;5086388;28;19964;-63
2023/08/04 11:29:12;;;;;;;;;;;22.00;90.30;;;;;;5078918;28;20295;-61
2023/08/04 11:31:40;;;;;;;;;;;22.00;90.30;;;;;;5074724;28;20014;-64
2023/08/04 11:34:11;;;;;;;;;;;22.00;90.30;;;;;;5088247;28;19921;-63
2023/08/04 11:36:38;;;;;;;;;;;22.00;90.30;;;;;;5095332;28;19930;-63
2023/08/04 11:39:04;;;;;;;;;;;22.00;90.30;;;;;;5085316;28;20312;-63
2023/08/04 11:41:30;;;;;;;;;;;22.00;90.30;;;;;;5089566;28;20343;-64
2023/08/04 11:43:55;;;;;;;;;;;22.00;90.30;;;;;;5072679;28;19939;-64
2023/08/04 11:46:21;;;;;;;;;;;22.00;90.40;;;;;;5078052;28;19918;-64
2023/08/04 11:48:46;;;;;;;;;;;22.00;90.40;;;;;;5075784;28;19959;-64
2023/08/04 11:51:12;;;;;;;;;;;22.00;90.30;;;;;;5093644;28;20409;-63
2023/08/04 11:53:38;;;;;;;;;;;22.00;90.30;;;;;;5096471;28;20286;-63
2023/08/04 11:56:04;;;;;;;;;;;22.00;90.30;;;;;;5088662;28;19982;-58
2023/08/04 11:58:36;;;;;;;;;;;22.00;90.30;;;;;;5076198;28;19983;-63
2023/08/04 12:01:05;;;;;;;;;;;22.00;90.40;;;;;;5074879;28;19909;-63
2023/08/04 12:03:44;;;;;;;;;;;22.00;90.40;;;;;;5075647;28;20351;-64
2023/08/04 12:06:16;;;;;;;;;;;22.00;90.30;;;;;;5075533;28;20297;-63
2023/08/04 12:08:52;;;;;;;;;;;22.00;90.30;;;;;;5075779;28;19944;-62
2023/08/04 12:11:18;;;;;;;;;;;22.00;90.30;;;;;;5074265;28;19999;-62
2023/08/04 12:13:44;;;;;;;;;;;22.00;90.40;;;;;;5075595;28;19909;-63
2023/08/04 12:16:10;;;;;;;;;;;22.00;90.40;;;;;;5076085;28;20297;-63
2023/08/04 12:18:36;;;;;;;;;;;22.00;90.30;;;;;;5074977;28;20298;-62
2023/08/04 12:21:03;;;;;;;;;;;22.00;90.40;;;;;;5075485;28;19950;-62
2023/08/04 12:23:28;;;;;;;;;;;22.00;90.30;;;;;;5087135;28;19908;-63
2023/08/04 12:25:54;;;;;;;;;;;22.00;90.40;;;;;;5095575;28;20270;-62
2023/08/04 12:28:19;;;;;;;;;;;22.00;90.40;;;;;;5086223;28;20316;-63
2023/08/04 12:30:44;;;;;;;;;;;22.00;90.30;;;;;;5075234;28;19909;-62
2023/08/04 12:33:10;;;;;;;;;;;22.00;90.30;;;;;;5075831;28;19909;-63
2023/08/04 12:35:36;;;;;;;;;;;21.90;90.30;;;;;;5074873;28;19912;-63
2023/08/04 12:38:04;;;;;;;;;;;22.00;90.30;;;;;;5075080;28;19951;-63
2023/08/04 12:40:33;;;;;;;;;;;22.00;90.30;;;;;;5074996;28;19904;-63
2023/08/04 12:42:58;;;;;;;;;;;22.00;90.30;;;;;;5074710;28;19909;-63
2023/08/04 12:45:24;;;;;;;;;;;22.00;90.30;;;;;;5072264;28;19995;-64
2023/08/04 12:47:49;;;;;;;;;;;22.00;90.30;;;;;;5072290;28;19917;-62
2023/08/04 12:50:15;;;;;;;;;;;22.00;90.30;;;;;;5071958;28;19916;-64
2023/08/04 12:52:40;;;;;;;;;;;22.00;90.30;;;;;;5079517;28;20394;-63
2023/08/04 12:55:08;;;;;;;;;;;22.00;90.30;;;;;;5073703;28;20558;-63
2023/08/04 12:57:34;;;;;;;;;;;22.00;90.40;;;;;;5073418;28;19994;-63
2023/08/04 12:59:59;;;;;;;;;;;22.00;90.40;;;;;;5073800;28;20002;-63
2023/08/04 13:02:26;;;;;;;;;;;22.00;90.30;;;;;;5072419;28;20359;-61
2023/08/04 13:04:51;;;;;;;;;;;22.00;90.40;;;;;;5091798;28;20016;-63
2023/08/04 13:07:17;;;;;;;;;;;22.00;90.40;;;;;;5074531;28;20366;-62
2023/08/04 13:09:42;;;;;;;;;;;22.00;90.30;;;;;;5076656;28;19912;-62
2023/08/04 13:12:08;;;;;;;;;;;22.00;90.30;;;;;;5083154;28;19925;-62
2023/08/04 13:14:33;;;;;;;;;;;22.00;90.40;;;;;;5074145;28;19908;-62
2023/08/04 13:16:59;;;;;;;;;;;21.90;90.40;;;;;;5073934;28;20228;-62
2023/08/04 13:19:24;;;;;;;;;;;22.00;90.40;;;;;;5078641;28;19908;-62
2023/08/04 13:21:50;;;;;;;;;;;22.00;90.40;;;;;;5078347;28;20420;-62
2023/08/04 13:24:16;;;;;;;;;;;22.00;90.40;;;;;;5075999;28;19905;-62
2023/08/04 13:26:42;;;;;;;;;;;22.00;90.40;;;;;;5074144;28;19905;-63
2023/08/04 13:29:07;;;;;;;;;;;22.00;90.40;;;;;;5074027;28;19947;-62
2023/08/04 13:31:32;;;;;;;;;;;22.00;90.40;;;;;;5073806;28;19908;-62
2023/08/04 13:33:58;;;;;;;;;;;22.00;90.40;;;;;;5078809;28;19916;-62
2023/08/04 13:36:23;;;;;;;;;;;21.90;90.40;;;;;;5081555;28;20252;-63
2023/08/04 13:38:52;;;;;;;;;;;21.90;90.50;;;;;;5073729;28;19927;-62
2023/08/04 13:41:17;;;;;;;;;;;21.90;90.50;;;;;;5077138;28;19908;-62
2023/08/04 13:43:46;;;;;;;;;;;21.90;90.50;;;;;;5073933;28;19905;-62
2023/08/04 13:46:11;;;;;;;;;;;22.00;90.50;;;;;;5074488;28;19920;-62
2023/08/04 13:48:37;;;;;;;;;;;21.90;90.50;;;;;;5074027;28;19962;-62
2023/08/04 13:51:03;;;;;;;;;;;22.00;90.60;;;;;;5073511;28;19947;-62
2023/08/04 13:53:28;;;;;;;;;;;22.00;90.60;;;;;;5093301;28;19946;-62
2023/08/04 13:55:54;;;;;;;;;;;21.90;90.60;;;;;;5093544;28;19904;-62
2023/08/04 13:58:19;;;;;;;;;;;21.90;90.60;;;;;;5076164;28;19908;-61
2023/08/04 14:00:45;;;;;;;;;;;22.00;90.60;;;;;;5074704;28;19905;-62
2023/08/04 14:03:10;;;;;;;;;;;21.90;90.60;;;;;;5085450;28;19953;-62
2023/08/04 14:05:35;;;;;;;;;;;21.90;90.50;;;;;;5073370;28;19904;-62
2023/08/04 14:08:02;;;;;;;;;;;22.00;90.60;;;;;;5073884;28;19905;-62
2023/08/04 14:10:28;;;;;;;;;;;21.90;90.50;;;;;;5076159;28;20142;-62